Time;durP1;ratioP1;P1;durP2;ratioP2;P2;SDS_P1;SDS_P2;PMS_P1;PMS_P2;Temp;Humidity;BMP_temperature;BMP_pressure;BME280_temperature;BME280_humidity;BME280_pressure;Samples;Min_cycle;Max_cycle;Signal;HPM_P1;HPM_P2
2022/03/20 00:00:26;;;;;;;28.20;19.83;;;9.30;90.10;;;;;;5054875;28;20428;-75
2022/03/20 00:02:53;;;;;;;29.13;21.13;;;9.00;90.00;;;;;;5039700;28;20836;-75
2022/03/20 00:05:19;;;;;;;27.37;20.70;;;9.00;90.30;;;;;;5052154;28;20810;-76
2022/03/20 00:07:46;;;;;;;31.37;22.10;;;9.10;90.40;;;;;;5037132;28;20441;-77
2022/03/20 00:10:12;;;;;;;25.27;19.30;;;9.10;90.10;;;;;;5057479;28;20254;-76
2022/03/20 00:12:39;;;;;;;27.87;20.70;;;9.30;89.90;;;;;;5053873;28;20445;-76
2022/03/20 00:15:06;;;;;;;30.87;20.70;;;9.10;89.80;;;;;;5059166;28;20869;-75
2022/03/20 00:17:33;;;;;;;36.63;22.53;;;8.90;90.30;;;;;;5057504;28;21235;-75
2022/03/20 00:19:58;;;;;;;29.43;21.20;;;8.80;90.30;;;;;;5060039;28;20429;-75
2022/03/20 00:22:25;;;;;;;25.00;19.80;;;8.80;90.30;;;;;;5060282;28;20456;-76
2022/03/20 00:24:51;;;;;;;30.30;21.80;;;8.70;90.60;;;;;;5060870;28;20253;-76
2022/03/20 00:27:17;;;;;;;25.23;19.10;;;8.70;90.60;;;;;;5062177;28;20433;-75
2022/03/20 00:29:43;;;;;;;27.03;19.43;;;8.80;90.50;;;;;;5061076;28;20437;-76
2022/03/20 00:32:12;;;;;;;28.33;20.30;;;8.80;90.60;;;;;;5058751;28;20531;-76
2022/03/20 00:34:39;;;;;;;28.40;20.33;;;8.90;90.10;;;;;;5054340;28;20565;-77
2022/03/20 00:37:08;;;;;;;28.60;20.23;;;8.80;88.90;;;;;;5058985;28;20932;-77
2022/03/20 00:39:34;;;;;;;28.17;20.10;;;8.80;89.80;;;;;;5054625;28;20847;-76
2022/03/20 00:42:00;;;;;;;30.97;20.60;;;8.80;89.70;;;;;;5040312;28;20534;-77
2022/03/20 00:44:26;;;;;;;35.50;21.20;;;8.70;89.50;;;;;;5055634;28;20461;-77
2022/03/20 00:46:51;;;;;;;26.67;20.23;;;8.80;89.50;;;;;;5055080;28;20433;-76
2022/03/20 00:49:17;;;;;;;26.03;20.10;;;8.80;88.60;;;;;;5058987;28;20667;-77
2022/03/20 00:51:43;;;;;;;27.53;19.20;;;8.70;87.80;;;;;;5058253;28;20223;-76
2022/03/20 00:54:10;;;;;;;25.67;20.30;;;8.70;88.20;;;;;;5042810;28;20215;-76
2022/03/20 00:56:37;;;;;;;26.37;19.27;;;8.60;88.20;;;;;;5053593;28;20452;-75
2022/03/20 00:59:05;;;;;;;26.20;18.77;;;8.70;87.80;;;;;;5054921;28;20433;-75
2022/03/20 01:01:32;;;;;;;26.50;19.00;;;8.60;87.90;;;;;;5035649;28;20552;-75
2022/03/20 01:03:58;;;;;;;25.60;20.67;;;8.50;88.00;;;;;;5053081;28;20542;-76
2022/03/20 01:06:24;;;;;;;24.60;19.40;;;8.40;88.00;;;;;;5054466;28;21143;-75
2022/03/20 01:08:50;;;;;;;26.97;20.03;;;8.40;89.00;;;;;;5056647;28;20184;-76
2022/03/20 01:11:16;;;;;;;25.50;19.23;;;8.30;88.00;;;;;;5041584;28;20452;-76
2022/03/20 01:13:43;;;;;;;26.97;19.60;;;8.40;87.70;;;;;;5044247;28;21294;-74
2022/03/20 01:16:09;;;;;;;29.03;20.10;;;8.20;88.40;;;;;;5058869;28;20452;-75
2022/03/20 01:18:35;;;;;;;30.80;20.80;;;8.20;88.20;;;;;;5058383;28;20490;-74
2022/03/20 01:21:04;;;;;;;29.90;20.47;;;8.20;87.80;;;;;;5054488;28;20562;-75
2022/03/20 01:23:29;;;;;;;26.00;19.37;;;8.30;87.40;;;;;;5056010;28;20469;-75
2022/03/20 01:25:55;;;;;;;29.37;21.40;;;8.20;86.80;;;;;;5041317;28;20449;-75
2022/03/20 01:28:23;;;;;;;30.77;19.97;;;8.20;87.30;;;;;;5053553;28;20194;-75
2022/03/20 01:30:49;;;;;;;24.90;19.00;;;8.10;87.70;;;;;;5034428;28;20936;-76
2022/03/20 01:33:16;;;;;;;29.37;18.20;;;8.20;87.40;;;;;;5056044;28;20449;-73
2022/03/20 01:35:42;;;;;;;33.30;20.67;;;8.30;86.60;;;;;;5054414;28;20532;-76
2022/03/20 01:38:08;;;;;;;25.23;19.33;;;8.10;86.70;;;;;;5055607;28;20457;-76
2022/03/20 01:40:34;;;;;;;31.67;20.10;;;8.10;86.50;;;;;;5039632;28;21126;-76
2022/03/20 01:43:00;;;;;;;27.53;20.10;;;8.20;86.30;;;;;;5052268;28;20461;-76
2022/03/20 01:45:26;;;;;;;24.77;18.90;;;8.20;85.80;;;;;;5057124;28;20499;-76
2022/03/20 01:47:53;;;;;;;25.20;19.10;;;8.10;86.00;;;;;;5057741;28;20433;-76
2022/03/20 01:50:24;;;;;;;32.07;21.40;;;8.20;86.30;;;;;;5053930;28;20178;-76
2022/03/20 01:52:52;;;;;;;24.03;17.63;;;8.20;85.70;;;;;;5054359;28;20434;-78
2022/03/20 01:55:20;;;;;;;24.87;18.40;;;8.00;86.00;;;;;;5052345;28;20440;-74
2022/03/20 01:57:46;;;;;;;30.77;19.83;;;7.90;86.00;;;;;;5054468;28;21008;-76
2022/03/20 02:00:14;;;;;;;22.40;18.20;;;8.00;85.80;;;;;;5054231;28;20442;-75
2022/03/20 02:02:40;;;;;;;27.40;18.90;;;8.10;85.20;;;;;;5034399;28;20210;-77
2022/03/20 02:05:09;;;;;;;25.43;18.30;;;8.10;85.30;;;;;;5053754;28;20446;-75
2022/03/20 02:07:34;;;;;;;26.37;18.87;;;8.20;84.50;;;;;;5055074;28;20190;-74
2022/03/20 02:10:01;;;;;;;23.27;19.20;;;8.00;84.70;;;;;;5045052;28;20686;-76
2022/03/20 02:12:28;;;;;;;27.13;19.53;;;8.10;85.70;;;;;;5054000;28;20297;-77
2022/03/20 02:14:58;;;;;;;24.70;17.97;;;8.10;84.40;;;;;;5056536;28;21128;-76
2022/03/20 02:17:30;;;;;;;26.90;18.90;;;8.00;84.30;;;;;;5052310;28;20465;-76
2022/03/20 02:20:03;;;;;;;25.37;18.70;;;8.00;84.90;;;;;;5056019;28;20513;-76
2022/03/20 02:22:31;;;;;;;25.73;19.17;;;8.00;83.90;;;;;;5051909;28;20466;-76
2022/03/20 02:24:57;;;;;;;23.93;18.60;;;8.00;83.40;;;;;;5054396;28;20468;-76
2022/03/20 02:27:27;;;;;;;22.27;18.10;;;8.00;83.20;;;;;;5039306;28;20456;-75
2022/03/20 02:29:57;;;;;;;26.37;18.50;;;7.90;83.20;;;;;;5053426;28;20729;-74
2022/03/20 02:32:27;;;;;;;25.57;19.37;;;7.50;84.50;;;;;;5052481;28;21309;-74
2022/03/20 02:34:53;;;;;;;26.40;18.40;;;7.70;85.00;;;;;;5052387;28;20454;-75
2022/03/20 02:37:22;;;;;;;24.03;17.60;;;7.70;84.30;;;;;;5052496;28;20529;-75
2022/03/20 02:39:49;;;;;;;25.43;17.63;;;7.80;83.90;;;;;;5041052;28;21144;-74
2022/03/20 02:42:16;;;;;;;26.30;19.00;;;7.90;83.30;;;;;;5055398;28;20480;-76
2022/03/20 02:45:28;;;;;;;23.10;18.30;;;7.70;84.10;;;;;;5050800;28;20821;-76
2022/03/20 02:47:54;;;;;;;26.77;17.10;;;7.70;82.80;;;;;;5025143;28;20802;-75
2022/03/20 02:50:22;;;;;;;26.70;18.70;;;7.80;82.70;;;;;;5036178;28;20432;-77
2022/03/20 02:52:53;;;;;;;22.60;17.80;;;7.90;83.30;;;;;;5053657;28;20450;-75
2022/03/20 02:55:24;;;;;;;20.80;17.73;;;7.90;82.00;;;;;;5053372;28;20449;-75
2022/03/20 02:57:52;;;;;;;24.37;18.50;;;7.90;82.20;;;;;;5053872;28;20523;-75
2022/03/20 03:00:22;;;;;;;21.60;17.37;;;8.10;81.50;;;;;;5051744;28;20433;-74
2022/03/20 03:02:49;;;;;;;23.13;17.43;;;8.10;80.40;;;;;;5055883;28;20472;-75
2022/03/20 03:05:17;;;;;;;26.30;17.93;;;8.10;79.90;;;;;;5038847;28;20438;-74
2022/03/20 03:13:15;;;;;;;23.43;17.50;;;8.00;80.20;;;;;;5050525;28;20460;-76
2022/03/20 03:15:41;;;;;;;27.53;16.93;;;8.10;80.40;;;;;;5039161;28;20437;-75
2022/03/20 03:18:07;;;;;;;23.30;17.00;;;8.10;80.30;;;;;;5051687;28;20933;-74
2022/03/20 03:20:33;;;;;;;24.93;19.27;;;8.10;79.50;;;;;;5035058;28;20199;-75
2022/03/20 03:22:58;;;;;;;23.27;17.00;;;8.00;79.50;;;;;;5052696;28;20548;-76
2022/03/20 03:25:25;;;;;;;24.60;17.30;;;8.00;78.80;;;;;;5053862;28;20258;-77
2022/03/20 03:27:51;;;;;;;23.87;17.60;;;8.00;78.70;;;;;;5051908;28;20494;-77
2022/03/20 03:30:18;;;;;;;25.60;17.80;;;8.10;78.40;;;;;;5055132;28;20848;-76
2022/03/20 03:32:44;;;;;;;21.27;16.50;;;8.10;78.20;;;;;;5053495;28;20788;-75
2022/03/20 03:37:55;;;;;;;23.43;17.10;;;8.10;78.50;;;;;;5052745;28;21214;-76
2022/03/20 03:40:21;;;;;;;24.20;17.60;;;8.00;78.30;;;;;;5052056;28;20449;-77
2022/03/20 03:42:47;;;;;;;26.10;17.10;;;8.00;78.20;;;;;;5051245;28;21031;-76
2022/03/20 03:45:13;;;;;;;23.93;17.50;;;8.10;78.30;;;;;;5051761;28;20480;-77
2022/03/20 03:47:40;;;;;;;22.73;16.67;;;8.10;78.00;;;;;;5050384;28;20290;-76
2022/03/20 03:50:06;;;;;;;24.20;16.77;;;8.10;78.00;;;;;;5053717;28;20443;-76
2022/03/20 03:52:32;;;;;;;22.53;16.70;;;8.20;78.20;;;;;;5049657;28;20455;-75
2022/03/20 03:54:58;;;;;;;24.63;17.47;;;8.20;78.00;;;;;;5050740;28;20469;-76
2022/03/20 03:57:23;;;;;;;24.70;18.27;;;8.20;78.20;;;;;;5057336;28;20196;-75
2022/03/20 03:59:49;;;;;;;24.07;17.73;;;8.20;78.10;;;;;;5056665;28;20241;-76
2022/03/20 04:02:15;;;;;;;27.37;17.90;;;8.10;78.30;;;;;;5056710;28;20198;-74
2022/03/20 04:04:42;;;;;;;24.80;19.10;;;8.10;78.20;;;;;;5055614;28;20200;-74
2022/03/20 04:07:08;;;;;;;21.63;16.27;;;8.20;78.20;;;;;;5056085;28;20434;-75
2022/03/20 04:09:35;;;;;;;24.77;17.27;;;8.10;78.50;;;;;;5059284;28;20972;-74
2022/03/20 04:12:02;;;;;;;23.60;17.53;;;8.10;78.30;;;;;;5057267;28;21125;-75
2022/03/20 04:14:28;;;;;;;24.47;18.67;;;8.20;78.40;;;;;;5039108;28;21088;-75
2022/03/20 04:16:54;;;;;;;21.30;16.77;;;8.10;78.10;;;;;;5056592;28;20516;-75
2022/03/20 04:19:20;;;;;;;23.80;16.97;;;7.90;78.30;;;;;;5052436;28;20557;-75
2022/03/20 04:21:48;;;;;;;23.77;18.03;;;8.00;78.50;;;;;;5057108;28;20199;-75
2022/03/20 04:24:14;;;;;;;21.87;17.00;;;8.10;78.30;;;;;;5052103;28;20683;-77
2022/03/20 04:26:40;;;;;;;26.70;17.73;;;8.30;78.00;;;;;;5055328;28;20437;-74
2022/03/20 04:29:05;;;;;;;22.30;16.63;;;8.30;77.80;;;;;;5057143;28;20434;-78
2022/03/20 04:31:31;;;;;;;23.33;17.80;;;8.20;78.00;;;;;;5055402;28;20572;-75
2022/03/20 04:33:57;;;;;;;29.60;17.03;;;8.10;79.40;;;;;;5038795;28;20307;-75
2022/03/20 04:36:24;;;;;;;29.43;18.83;;;8.20;78.50;;;;;;5056862;28;20441;-77
2022/03/20 04:38:52;;;;;;;21.70;16.60;;;8.20;78.30;;;;;;5056178;28;20442;-77
2022/03/20 04:41:18;;;;;;;26.00;16.53;;;8.20;78.30;;;;;;5038557;28;20461;-77
2022/03/20 04:43:46;;;;;;;24.37;18.40;;;8.20;79.00;;;;;;5056229;28;20463;-76
2022/03/20 04:46:13;;;;;;;23.40;16.90;;;8.40;78.30;;;;;;5054497;28;20436;-75
2022/03/20 04:59:34;;;;;;;22.60;15.80;;;8.20;79.80;;;;;;5056643;28;20955;-75
2022/03/20 05:02:00;;;;;;;23.40;17.60;;;8.30;79.40;;;;;;5057422;28;20461;-75
2022/03/20 05:04:26;;;;;;;24.03;17.70;;;8.10;80.50;;;;;;5059819;28;20226;-77
2022/03/20 05:06:51;;;;;;;23.27;17.50;;;8.00;79.50;;;;;;5058685;28;20183;-76
2022/03/20 05:14:45;;;;;;;20.77;16.20;;;8.30;80.10;;;;;;5056318;28;21713;-76
2022/03/20 05:17:11;;;;;;;25.87;18.27;;;8.30;80.20;;;;;;5057353;28;20445;-77
2022/03/20 05:19:40;;;;;;;22.97;17.03;;;8.50;79.60;;;;;;5054889;28;20195;-77
2022/03/20 05:22:10;;;;;;;23.90;17.17;;;8.50;79.50;;;;;;5057691;28;20204;-77
2022/03/20 05:24:37;;;;;;;22.33;16.80;;;8.40;79.60;;;;;;5054611;28;20564;-75
2022/03/20 05:27:04;;;;;;;24.57;18.07;;;8.30;80.50;;;;;;5057524;28;20450;-74
2022/03/20 05:29:30;;;;;;;24.40;17.67;;;8.30;80.90;;;;;;5058211;28;20438;-76
2022/03/20 05:31:56;;;;;;;26.60;18.07;;;8.40;80.30;;;;;;5055257;28;20491;-76
2022/03/20 05:34:22;;;;;;;26.80;18.40;;;8.40;81.10;;;;;;5054764;28;20215;-76
2022/03/20 05:36:51;;;;;;;20.97;16.27;;;8.40;81.30;;;;;;5056017;28;20556;-76
2022/03/20 05:39:17;;;;;;;26.87;18.83;;;8.60;80.10;;;;;;5044068;28;20441;-77
2022/03/20 05:41:50;;;;;;;21.90;17.33;;;8.60;79.90;;;;;;5057743;28;20493;-76
2022/03/20 05:44:20;;;;;;;25.87;19.07;;;8.70;79.60;;;;;;5058014;28;20461;-76
2022/03/20 05:46:50;;;;;;;26.13;17.53;;;8.60;79.70;;;;;;5053990;28;20433;-74
2022/03/20 05:49:21;;;;;;;24.40;17.10;;;8.50;80.20;;;;;;5054018;28;20449;-75
2022/03/20 05:51:47;;;;;;;30.00;19.20;;;8.30;81.40;;;;;;5059540;28;20455;-77
2022/03/20 05:54:15;;;;;;;29.10;18.43;;;8.40;81.10;;;;;;5039486;28;21036;-76
2022/03/20 05:59:25;;;;;;;23.17;18.23;;;8.60;80.70;;;;;;5056112;28;20887;-77
2022/03/20 06:01:51;;;;;;;25.37;17.70;;;8.60;80.30;;;;;;5054668;28;20473;-76
2022/03/20 06:04:18;;;;;;;28.97;18.40;;;8.60;80.30;;;;;;5038767;28;20207;-75
2022/03/20 06:06:43;;;;;;;28.10;18.80;;;8.50;81.30;;;;;;5046629;28;20421;-74
2022/03/20 06:09:10;;;;;;;24.07;17.97;;;8.60;81.00;;;;;;5053273;28;20446;-76
2022/03/20 06:11:35;;;;;;;30.00;19.40;;;8.60;80.80;;;;;;5057318;28;20684;-75
2022/03/20 06:14:02;;;;;;;28.50;18.87;;;8.60;81.70;;;;;;5058775;28;20480;-76
2022/03/20 06:16:28;;;;;;;26.50;19.13;;;8.70;81.30;;;;;;5054738;28;20186;-77
2022/03/20 06:18:55;;;;;;;22.67;17.43;;;8.70;81.20;;;;;;5044130;28;20475;-76
2022/03/20 06:21:20;;;;;;;24.47;18.53;;;8.70;81.70;;;;;;5055127;28;20196;-77
2022/03/20 06:23:46;;;;;;;24.83;19.00;;;8.70;82.00;;;;;;5056223;28;21196;-77
2022/03/20 06:26:12;;;;;;;28.00;18.70;;;8.90;81.80;;;;;;5046374;28;20541;-77
2022/03/20 06:28:40;;;;;;;26.77;18.90;;;8.80;82.30;;;;;;5059459;28;20271;-77
2022/03/20 06:31:10;;;;;;;25.97;18.57;;;9.00;81.70;;;;;;5057451;28;20319;-76
2022/03/20 06:33:37;;;;;;;26.50;17.90;;;9.00;81.60;;;;;;5060763;28;20454;-76
2022/03/20 06:36:04;;;;;;;26.53;18.03;;;8.90;82.10;;;;;;5054089;28;20433;-75
2022/03/20 06:38:30;;;;;;;26.87;18.53;;;8.90;82.30;;;;;;5043048;28;20425;-78
2022/03/20 06:40:57;;;;;;;30.43;20.40;;;8.90;82.50;;;;;;5056433;28;20453;-75
2022/03/20 06:43:23;;;;;;;28.17;18.47;;;9.00;82.00;;;;;;5052303;28;20465;-76
2022/03/20 06:45:50;;;;;;;25.17;18.90;;;8.90;82.50;;;;;;5039634;28;21085;-77
2022/03/20 06:48:16;;;;;;;25.93;19.60;;;9.00;82.30;;;;;;5056596;28;20442;-77
2022/03/20 06:50:42;;;;;;;28.60;20.37;;;8.90;82.30;;;;;;5054820;28;20445;-77
2022/03/20 06:53:07;;;;;;;26.50;20.37;;;9.00;83.20;;;;;;5053901;28;20473;-78
2022/03/20 06:55:33;;;;;;;24.37;18.20;;;9.10;82.80;;;;;;5055665;28;20449;-77
2022/03/20 06:57:59;;;;;;;29.40;18.23;;;9.10;82.10;;;;;;5040996;28;20645;-78
2022/03/20 07:00:26;;;;;;;25.10;19.33;;;8.90;82.80;;;;;;5057904;28;20470;-77
2022/03/20 07:02:53;;;;;;;27.23;20.47;;;9.20;82.60;;;;;;5057187;28;20472;-77
2022/03/20 07:05:19;;;;;;;29.63;19.97;;;9.40;82.40;;;;;;5057155;28;20965;-76
2022/03/20 07:07:45;;;;;;;26.20;18.87;;;9.40;82.10;;;;;;5056788;28;20441;-77
2022/03/20 07:10:13;;;;;;;27.63;20.27;;;9.60;82.40;;;;;;5056599;28;20437;-77
2022/03/20 07:12:39;;;;;;;25.63;18.57;;;9.50;82.20;;;;;;5057182;28;20184;-76
2022/03/20 07:15:05;;;;;;;25.53;18.80;;;9.10;82.90;;;;;;5055043;28;20433;-75
2022/03/20 07:17:34;;;;;;;29.53;20.43;;;9.10;84.50;;;;;;5038777;28;20260;-78
2022/03/20 07:20:00;;;;;;;28.17;20.80;;;9.30;84.30;;;;;;5042178;28;20448;-76
2022/03/20 07:22:26;;;;;;;28.57;21.23;;;9.40;84.90;;;;;;5021721;28;20458;-77
2022/03/20 07:24:52;;;;;;;26.70;19.80;;;9.10;83.60;;;;;;5054666;28;20641;-78
2022/03/20 07:30:03;;;;;;;30.80;21.10;;;9.40;84.20;;;;;;5056225;28;20458;-74
2022/03/20 07:32:29;;;;;;;27.40;20.80;;;9.10;84.40;;;;;;5056336;28;20469;-76
2022/03/20 07:34:55;;;;;;;29.07;21.50;;;9.00;84.80;;;;;;5037295;28;20461;-74
2022/03/20 07:37:20;;;;;;;27.63;21.40;;;9.00;86.50;;;;;;5052734;28;20653;-74
2022/03/20 07:39:51;;;;;;;27.20;20.13;;;9.30;85.80;;;;;;5055649;28;20276;-75
2022/03/20 07:42:18;;;;;;;29.03;20.50;;;9.10;85.40;;;;;;5039209;28;20210;-74
2022/03/20 07:44:45;;;;;;;29.53;20.90;;;9.30;86.10;;;;;;5042792;28;20998;-76
2022/03/20 07:47:19;;;;;;;27.20;19.30;;;9.40;85.00;;;;;;5038304;28;20587;-75
2022/03/20 07:49:46;;;;;;;29.47;21.47;;;9.50;85.50;;;;;;5056935;28;20421;-73
2022/03/20 07:52:12;;;;;;;31.03;21.13;;;9.60;85.90;;;;;;5051808;28;20437;-75
2022/03/20 07:54:38;;;;;;;28.73;22.60;;;9.50;85.00;;;;;;5052034;28;20558;-76
2022/03/20 07:57:04;;;;;;;30.10;21.40;;;9.60;85.10;;;;;;5054245;28;20187;-78
2022/03/20 07:59:32;;;;;;;29.30;21.70;;;9.60;85.60;;;;;;5054083;28;20436;-75
2022/03/20 08:01:58;;;;;;;29.20;20.90;;;9.50;87.10;;;;;;5042825;28;20489;-76
2022/03/20 08:04:24;;;;;;;30.50;22.10;;;9.80;86.90;;;;;;5055064;28;20481;-77
2022/03/20 08:06:50;;;;;;;32.00;22.10;;;9.80;86.50;;;;;;5056822;28;20184;-76
2022/03/20 08:09:16;;;;;;;32.70;21.43;;;9.90;87.10;;;;;;5053137;28;20475;-75
2022/03/20 08:11:42;;;;;;;30.03;21.70;;;10.10;87.40;;;;;;5054077;28;20906;-79
2022/03/20 08:14:08;;;;;;;29.23;22.60;;;10.20;87.70;;;;;;5051946;28;20449;-77
2022/03/20 08:16:37;;;;;;;32.43;22.50;;;10.30;87.70;;;;;;5042810;28;20194;-75
2022/03/20 08:19:03;;;;;;;32.03;22.10;;;10.30;88.70;;;;;;5055043;28;20583;-75
2022/03/20 08:21:29;;;;;;;29.47;21.80;;;10.40;89.00;;;;;;5042036;28;20543;-76
2022/03/20 08:23:55;;;;;;;27.93;20.13;;;10.60;88.60;;;;;;5055580;28;20500;-75
2022/03/20 08:26:21;;;;;;;29.20;22.10;;;10.70;86.80;;;;;;5059392;28;20212;-75
2022/03/20 08:28:46;;;;;;;31.27;21.80;;;10.70;85.90;;;;;;5041918;28;20188;-76
2022/03/20 08:31:13;;;;;;;30.67;22.33;;;10.60;86.60;;;;;;5037275;28;20531;-76
2022/03/20 08:33:40;;;;;;;28.03;20.57;;;10.60;86.90;;;;;;5054095;28;20218;-79
2022/03/20 08:36:06;;;;;;;29.23;19.93;;;10.70;85.20;;;;;;5054205;28;20825;-79
2022/03/20 08:38:33;;;;;;;30.23;21.50;;;10.80;85.10;;;;;;5054371;28;20426;-76
2022/03/20 08:40:59;;;;;;;28.43;20.40;;;10.80;86.20;;;;;;5052452;28;20425;-76
2022/03/20 08:43:25;;;;;;;28.90;21.27;;;10.80;86.90;;;;;;5059186;28;20996;-77
2022/03/20 08:45:50;;;;;;;30.03;22.73;;;10.80;86.60;;;;;;5060359;28;20406;-77
2022/03/20 08:48:18;;;;;;;28.57;20.03;;;10.80;85.50;;;;;;5057190;28;20264;-76
2022/03/20 08:50:48;;;;;;;28.90;20.93;;;10.80;85.70;;;;;;5056332;28;20195;-77
2022/03/20 08:53:18;;;;;;;31.70;21.53;;;10.90;85.90;;;;;;5061987;28;20502;-76
2022/03/20 08:55:44;;;;;;;28.53;21.77;;;11.00;86.30;;;;;;5063070;28;20425;-75
2022/03/20 08:58:11;;;;;;;32.53;22.50;;;10.90;84.40;;;;;;5059314;28;20550;-75
2022/03/20 09:00:37;;;;;;;31.60;22.47;;;10.60;85.40;;;;;;5059683;28;21161;-78
2022/03/20 09:03:03;;;;;;;33.37;22.87;;;10.30;86.60;;;;;;5062791;28;20472;-76
2022/03/20 09:05:29;;;;;;;33.60;21.13;;;10.20;87.80;;;;;;5058975;28;20425;-76
2022/03/20 09:07:57;;;;;;;34.27;23.70;;;10.40;86.50;;;;;;5056671;28;20439;-74
2022/03/20 09:10:24;;;;;;;29.60;20.80;;;10.30;87.80;;;;;;5053877;28;20179;-77
2022/03/20 09:12:51;;;;;;;29.50;22.87;;;10.30;88.20;;;;;;5056864;28;20429;-75
2022/03/20 09:15:17;;;;;;;30.47;21.90;;;10.20;88.10;;;;;;5048768;28;20437;-75
2022/03/20 09:20:30;;;;;;;27.07;20.43;;;10.40;90.10;;;;;;5054095;28;20483;-75
2022/03/20 09:22:56;;;;;;;30.37;21.27;;;10.30;90.30;;;;;;5055150;28;21276;-76
2022/03/20 09:25:22;;;;;;;29.00;20.40;;;10.20;90.60;;;;;;5055298;28;20438;-75
2022/03/20 09:27:48;;;;;;;30.40;21.70;;;10.20;90.80;;;;;;5056152;28;20550;-78
2022/03/20 09:30:15;;;;;;;28.53;22.43;;;10.10;91.00;;;;;;5058640;28;20473;-75
2022/03/20 09:32:42;;;;;;;29.90;21.70;;;10.10;91.40;;;;;;5042474;28;20187;-77
2022/03/20 09:35:08;;;;;;;31.20;22.17;;;10.00;91.50;;;;;;5046010;28;20434;-76
2022/03/20 09:37:35;;;;;;;28.70;22.73;;;9.90;92.20;;;;;;5056131;28;20441;-75
2022/03/20 09:40:01;;;;;;;32.63;21.77;;;9.80;92.00;;;;;;5052664;28;21268;-76
2022/03/20 09:42:26;;;;;;;31.53;22.50;;;9.80;92.10;;;;;;5054890;28;21266;-75
2022/03/20 09:44:53;;;;;;;31.00;22.40;;;9.80;92.10;;;;;;5056812;28;20465;-76
2022/03/20 09:47:19;;;;;;;27.13;20.30;;;9.90;92.10;;;;;;5043132;28;20551;-76
2022/03/20 09:49:47;;;;;;;30.83;21.00;;;9.90;92.60;;;;;;5055065;28;20429;-76
2022/03/20 09:52:14;;;;;;;30.60;22.20;;;10.00;91.50;;;;;;5051581;28;20445;-75
2022/03/20 09:54:40;;;;;;;33.37;22.43;;;9.90;91.70;;;;;;5057783;28;20464;-75
2022/03/20 09:57:08;;;;;;;31.87;23.20;;;10.00;91.10;;;;;;5056548;28;20449;-75
2022/03/20 09:59:36;;;;;;;30.37;21.63;;;10.00;91.00;;;;;;5058022;28;20434;-75
2022/03/20 10:02:03;;;;;;;29.30;21.17;;;10.10;91.50;;;;;;5057236;28;20466;-74
2022/03/20 10:04:29;;;;;;;27.57;21.33;;;10.20;91.20;;;;;;5039794;28;20462;-75
2022/03/20 10:06:55;;;;;;;28.63;21.90;;;10.20;91.80;;;;;;5053495;28;20433;-75
2022/03/20 10:09:23;;;;;;;29.73;21.43;;;10.10;91.70;;;;;;5037984;28;20183;-73
2022/03/20 10:11:51;;;;;;;29.50;21.23;;;10.30;91.70;;;;;;5055015;28;20207;-75
2022/03/20 10:14:24;;;;;;;28.53;20.50;;;10.30;91.70;;;;;;5051844;28;20461;-76
2022/03/20 10:17:09;;;;;;;30.83;22.20;;;10.50;92.10;;;;;;5055529;28;20466;-75
2022/03/20 10:19:35;;;;;;;33.90;21.43;;;10.90;91.40;;;;;;5056347;28;20417;-75
2022/03/20 10:22:08;;;;;;;28.90;22.30;;;10.90;91.40;;;;;;5054651;28;21087;-75
2022/03/20 10:24:48;;;;;;;27.73;21.77;;;11.20;91.60;;;;;;5054342;28;21022;-73
2022/03/20 10:27:14;;;;;;;28.93;22.03;;;11.50;91.70;;;;;;5055880;28;20970;-74
2022/03/20 10:30:00;;;;;;;29.20;22.63;;;11.70;91.30;;;;;;5055384;28;20483;-74
2022/03/20 10:32:26;;;;;;;30.10;21.50;;;11.70;91.00;;;;;;5053460;28;20445;-74
2022/03/20 10:34:51;;;;;;;29.63;21.93;;;11.80;91.10;;;;;;5051161;28;20489;-73
2022/03/20 10:37:19;;;;;;;27.33;22.30;;;12.10;90.90;;;;;;5054892;28;20544;-72
2022/03/20 10:39:45;;;;;;;29.50;22.13;;;12.40;90.50;;;;;;5053412;28;20455;-74
2022/03/20 10:42:14;;;;;;;31.30;22.63;;;12.30;89.60;;;;;;5053375;28;20460;-75
2022/03/20 10:44:40;;;;;;;26.33;20.73;;;12.20;90.50;;;;;;5053104;28;20449;-72
2022/03/20 10:47:13;;;;;;;27.53;21.70;;;12.40;90.50;;;;;;5054989;28;20432;-74
2022/03/20 10:49:41;;;;;;;32.30;21.37;;;12.50;90.40;;;;;;5041891;28;20868;-74
2022/03/20 10:52:10;;;;;;;28.97;21.60;;;12.60;91.10;;;;;;5037530;28;20475;-74
2022/03/20 10:54:40;;;;;;;29.80;20.03;;;12.80;90.50;;;;;;5057152;28;22018;-75
2022/03/20 10:57:08;;;;;;;26.90;21.60;;;12.80;90.40;;;;;;5053999;28;20970;-73
2022/03/20 10:59:34;;;;;;;28.67;21.43;;;13.00;90.30;;;;;;5056155;28;20460;-77
2022/03/20 11:02:01;;;;;;;29.43;22.60;;;13.00;90.50;;;;;;5038533;28;20978;-76
2022/03/20 11:04:28;;;;;;;27.27;20.60;;;13.10;89.70;;;;;;5056998;28;20451;-76
2022/03/20 11:06:55;;;;;;;29.03;21.53;;;13.30;90.00;;;;;;5058111;28;20520;-76
2022/03/20 11:09:27;;;;;;;29.43;22.90;;;13.10;90.20;;;;;;5041765;28;20496;-75
2022/03/20 11:11:58;;;;;;;27.00;20.90;;;13.10;90.30;;;;;;5060393;28;20509;-75
2022/03/20 11:14:25;;;;;;;25.10;19.30;;;13.30;90.40;;;;;;5023376;28;20469;-75
2022/03/20 11:17:04;;;;;;;25.93;20.00;;;13.50;90.10;;;;;;5050883;28;20525;-75
2022/03/20 11:19:31;;;;;;;28.80;21.90;;;13.60;90.00;;;;;;5037541;28;20477;-75
2022/03/20 11:22:01;;;;;;;25.20;20.03;;;13.70;90.20;;;;;;5050810;28;20552;-75
2022/03/20 11:24:28;;;;;;;27.00;20.23;;;13.90;89.40;;;;;;5055087;28;20470;-74
2022/03/20 11:26:59;;;;;;;28.00;21.30;;;14.00;88.80;;;;;;5052827;28;21423;-78
2022/03/20 11:29:26;;;;;;;24.60;20.27;;;14.10;88.30;;;;;;5051546;28;20434;-75
2022/03/20 11:31:53;;;;;;;30.37;22.23;;;14.00;89.00;;;;;;5049847;28;20433;-74
2022/03/20 11:34:19;;;;;;;26.00;19.83;;;14.10;89.00;;;;;;5052044;28;20548;-75
2022/03/20 11:37:07;;;;;;;25.13;19.93;;;14.10;90.40;;;;;;5052538;28;20955;-75
2022/03/20 11:39:36;;;;;;;26.17;19.77;;;14.20;90.00;;;;;;5052375;28;20453;-75
2022/03/20 11:42:22;;;;;;;25.20;19.80;;;14.50;89.90;;;;;;5051598;28;21010;-75
2022/03/20 11:44:53;;;;;;;26.20;20.90;;;14.50;89.60;;;;;;5048376;28;20464;-75
2022/03/20 11:47:20;;;;;;;29.53;23.30;;;14.60;89.10;;;;;;5057251;28;20436;-75
2022/03/20 11:50:08;;;;;;;26.73;21.57;;;14.70;90.00;;;;;;5052600;28;20433;-77
2022/03/20 11:53:06;;;;;;;26.93;20.90;;;14.70;90.30;;;;;;5051651;28;20516;-76
2022/03/20 11:55:33;;;;;;;27.87;22.10;;;14.80;89.70;;;;;;5042774;28;20441;-78
2022/03/20 11:58:24;;;;;;;26.57;21.10;;;14.90;90.10;;;;;;5054908;28;20413;-76
2022/03/20 12:01:11;;;;;;;30.27;19.93;;;15.00;90.60;;;;;;5047781;28;20433;-74
2022/03/20 12:04:04;;;;;;;25.73;20.20;;;15.10;90.10;;;;;;5053302;28;20515;-77
2022/03/20 12:06:48;;;;;;;27.30;20.73;;;15.30;89.90;;;;;;5040432;28;20520;-74
2022/03/20 12:09:41;;;;;;;29.57;22.07;;;15.20;90.10;;;;;;5059895;28;20421;-75
2022/03/20 12:12:29;;;;;;;27.10;21.03;;;15.30;90.10;;;;;;5056546;28;20565;-76
2022/03/20 12:14:56;;;;;;;25.50;20.33;;;15.20;91.20;;;;;;5057256;28;20450;-75
2022/03/20 12:17:22;;;;;;;21.97;18.93;;;15.40;90.10;;;;;;5062464;28;20422;-75
2022/03/20 12:19:55;;;;;;;26.30;18.53;;;16.00;90.40;;;;;;5057528;28;20426;-75
2022/03/20 12:22:21;;;;;;;24.13;19.30;;;16.70;89.10;;;;;;5061005;28;20871;-76
2022/03/20 12:24:55;;;;;;;25.17;19.00;;;17.60;88.30;;;;;;5047782;28;20491;-76
2022/03/20 12:27:24;;;;;;;25.03;19.17;;;18.50;85.80;;;;;;5056709;28;21726;-76
2022/03/20 12:30:07;;;;;;;24.17;18.53;;;19.50;83.30;;;;;;5040931;28;20524;-77
2022/03/20 12:32:48;;;;;;;26.60;18.40;;;20.30;80.00;;;;;;5054883;28;20434;-77
2022/03/20 12:35:16;;;;;;;24.67;18.20;;;20.70;77.80;;;;;;5056675;28;21256;-77
2022/03/20 12:37:44;;;;;;;22.10;18.20;;;21.20;76.40;;;;;;5058430;28;20791;-77
2022/03/20 12:40:09;;;;;;;23.03;19.07;;;22.00;74.00;;;;;;5061525;28;20460;-77
2022/03/20 12:42:43;;;;;;;20.50;16.30;;;22.40;70.50;;;;;;5044242;28;20464;-77
2022/03/20 12:45:15;;;;;;;17.33;14.83;;;22.30;68.90;;;;;;5030586;28;20437;-76
2022/03/20 12:48:00;;;;;;;18.87;14.60;;;23.10;66.40;;;;;;5060675;28;20476;-77
2022/03/20 12:50:32;;;;;;;23.77;16.90;;;23.20;66.90;;;;;;5059769;28;20433;-76
2022/03/20 12:53:16;;;;;;;19.57;14.53;;;23.80;63.50;;;;;;5065609;28;20482;-76
2022/03/20 12:55:49;;;;;;;17.47;14.47;;;24.10;61.70;;;;;;5061053;28;21016;-76
2022/03/20 12:58:18;;;;;;;20.00;15.10;;;24.50;59.20;;;;;;5062119;28;20504;-77
2022/03/20 13:00:44;;;;;;;17.73;14.43;;;24.80;58.40;;;;;;5059747;28;20866;-77
2022/03/20 13:03:17;;;;;;;16.50;14.80;;;25.10;57.10;;;;;;5059085;28;20596;-77
2022/03/20 13:05:58;;;;;;;17.40;12.53;;;24.60;57.60;;;;;;5062812;28;20657;-77
2022/03/20 13:08:33;;;;;;;20.30;13.33;;;24.20;57.10;;;;;;5061049;28;20419;-75
2022/03/20 13:11:06;;;;;;;17.13;13.60;;;24.30;55.50;;;;;;5049075;28;20436;-77